sensor_id;sensor_type;location;lat;lon;timestamp;temperature;humidity
488;DHT22;16586;48.976;9.584;2022-07-23T00:02:22;25.50;46.10
488;DHT22;16586;48.976;9.584;2022-07-23T00:04:49;25.90;42.50
488;DHT22;16586;48.976;9.584;2022-07-23T00:07:16;25.80;39.10
488;DHT22;16586;48.976;9.584;2022-07-23T00:09:43;26.20;41.40
488;DHT22;16586;48.976;9.584;2022-07-23T00:12:10;25.90;39.20
488;DHT22;16586;48.976;9.584;2022-07-23T00:14:39;26.00;38.80
488;DHT22;16586;48.976;9.584;2022-07-23T00:17:06;25.50;43.50
488;DHT22;16586;48.976;9.584;2022-07-23T00:19:33;26.10;40.20
488;DHT22;16586;48.976;9.584;2022-07-23T00:21:59;26.10;37.10
488;DHT22;16586;48.976;9.584;2022-07-23T00:24:26;26.00;38.20
488;DHT22;16586;48.976;9.584;2022-07-23T00:26:53;26.20;35.30
488;DHT22;16586;48.976;9.584;2022-07-23T00:29:20;26.20;40.60
488;DHT22;16586;48.976;9.584;2022-07-23T00:31:48;26.50;39.40
488;DHT22;16586;48.976;9.584;2022-07-23T00:34:15;25.70;34.80
488;DHT22;16586;48.976;9.584;2022-07-23T00:36:42;24.60;39.50
488;DHT22;16586;48.976;9.584;2022-07-23T00:39:09;26.00;40.70
488;DHT22;16586;48.976;9.584;2022-07-23T00:41:36;26.30;38.90
488;DHT22;16586;48.976;9.584;2022-07-23T00:44:20;26.30;37.90
488;DHT22;16586;48.976;9.584;2022-07-23T00:46:49;26.50;37.70
488;DHT22;16586;48.976;9.584;2022-07-23T00:49:19;26.00;38.00
488;DHT22;16586;48.976;9.584;2022-07-23T00:51:47;26.10;39.70
488;DHT22;16586;48.976;9.584;2022-07-23T00:54:14;26.20;38.50
488;DHT22;16586;48.976;9.584;2022-07-23T00:56:42;24.60;36.30
488;DHT22;16586;48.976;9.584;2022-07-23T00:59:09;26.20;39.30
488;DHT22;16586;48.976;9.584;2022-07-23T01:01:37;26.30;40.60
488;DHT22;16586;48.976;9.584;2022-07-23T01:04:05;26.30;39.10
488;DHT22;16586;48.976;9.584;2022-07-23T01:06:35;25.80;37.60
488;DHT22;16586;48.976;9.584;2022-07-23T01:09:03;26.20;39.60
488;DHT22;16586;48.976;9.584;2022-07-23T01:11:32;26.20;39.10
488;DHT22;16586;48.976;9.584;2022-07-23T01:13:59;26.40;39.20
488;DHT22;16586;48.976;9.584;2022-07-23T01:16:33;26.40;40.30
488;DHT22;16586;48.976;9.584;2022-07-23T01:19:00;26.30;34.90
488;DHT22;16586;48.976;9.584;2022-07-23T01:21:29;26.30;37.10
488;DHT22;16586;48.976;9.584;2022-07-23T01:23:57;26.30;39.30
488;DHT22;16586;48.976;9.584;2022-07-23T01:26:24;26.40;40.00
488;DHT22;16586;48.976;9.584;2022-07-23T01:28:53;26.70;40.00
488;DHT22;16586;48.976;9.584;2022-07-23T01:31:20;26.00;34.00
488;DHT22;16586;48.976;9.584;2022-07-23T01:33:48;26.30;34.60
488;DHT22;16586;48.976;9.584;2022-07-23T01:36:14;27.10;35.60
488;DHT22;16586;48.976;9.584;2022-07-23T01:38:41;26.10;35.60
488;DHT22;16586;48.976;9.584;2022-07-23T01:41:10;26.10;33.60
488;DHT22;16586;48.976;9.584;2022-07-23T01:43:37;25.10;37.10
488;DHT22;16586;48.976;9.584;2022-07-23T01:46:04;25.50;33.70
488;DHT22;16586;48.976;9.584;2022-07-23T01:48:31;26.00;33.80
488;DHT22;16586;48.976;9.584;2022-07-23T01:50:58;26.30;35.50
488;DHT22;16586;48.976;9.584;2022-07-23T01:53:24;25.60;33.70
488;DHT22;16586;48.976;9.584;2022-07-23T01:55:51;26.00;39.80
488;DHT22;16586;48.976;9.584;2022-07-23T01:58:20;26.80;39.40
488;DHT22;16586;48.976;9.584;2022-07-23T02:00:46;25.90;35.60
488;DHT22;16586;48.976;9.584;2022-07-23T02:03:13;23.90;36.20
488;DHT22;16586;48.976;9.584;2022-07-23T02:05:40;25.50;39.50
488;DHT22;16586;48.976;9.584;2022-07-23T02:08:07;26.00;38.20
488;DHT22;16586;48.976;9.584;2022-07-23T02:10:34;25.90;39.20
488;DHT22;16586;48.976;9.584;2022-07-23T02:13:01;26.00;38.20
488;DHT22;16586;48.976;9.584;2022-07-23T02:15:29;25.60;37.10
488;DHT22;16586;48.976;9.584;2022-07-23T02:17:56;25.10;39.10
488;DHT22;16586;48.976;9.584;2022-07-23T02:20:23;26.10;42.70
488;DHT22;16586;48.976;9.584;2022-07-23T02:22:50;25.40;40.70
488;DHT22;16586;48.976;9.584;2022-07-23T02:25:18;26.00;38.40
488;DHT22;16586;48.976;9.584;2022-07-23T02:27:44;25.90;38.10
488;DHT22;16586;48.976;9.584;2022-07-23T02:30:12;25.80;38.40
488;DHT22;16586;48.976;9.584;2022-07-23T02:32:40;25.80;36.60
488;DHT22;16586;48.976;9.584;2022-07-23T02:35:07;25.40;42.30
488;DHT22;16586;48.976;9.584;2022-07-23T02:37:34;25.60;42.70
488;DHT22;16586;48.976;9.584;2022-07-23T02:40:01;25.70;42.70
488;DHT22;16586;48.976;9.584;2022-07-23T02:42:28;25.50;38.80
488;DHT22;16586;48.976;9.584;2022-07-23T02:44:55;26.80;37.90
488;DHT22;16586;48.976;9.584;2022-07-23T02:47:22;25.30;37.00
488;DHT22;16586;48.976;9.584;2022-07-23T02:49:50;23.30;40.60
488;DHT22;16586;48.976;9.584;2022-07-23T02:52:17;25.30;38.00
488;DHT22;16586;48.976;9.584;2022-07-23T02:54:44;25.30;39.90
488;DHT22;16586;48.976;9.584;2022-07-23T02:57:11;25.20;38.40
488;DHT22;16586;48.976;9.584;2022-07-23T02:59:37;25.50;44.10
488;DHT22;16586;48.976;9.584;2022-07-23T03:02:04;23.80;41.00
488;DHT22;16586;48.976;9.584;2022-07-23T03:04:31;24.90;42.20
488;DHT22;16586;48.976;9.584;2022-07-23T03:06:59;25.10;43.50
488;DHT22;16586;48.976;9.584;2022-07-23T03:09:26;25.00;44.90
488;DHT22;16586;48.976;9.584;2022-07-23T03:11:53;25.30;43.40
488;DHT22;16586;48.976;9.584;2022-07-23T03:14:20;25.00;44.20
488;DHT22;16586;48.976;9.584;2022-07-23T03:16:47;24.20;43.10
488;DHT22;16586;48.976;9.584;2022-07-23T03:19:15;24.80;39.70
488;DHT22;16586;48.976;9.584;2022-07-23T03:21:42;24.90;45.20
488;DHT22;16586;48.976;9.584;2022-07-23T03:24:10;24.10;42.90
488;DHT22;16586;48.976;9.584;2022-07-23T03:26:37;24.90;45.60
488;DHT22;16586;48.976;9.584;2022-07-23T03:29:05;24.30;44.10
488;DHT22;16586;48.976;9.584;2022-07-23T03:31:32;24.40;46.30
488;DHT22;16586;48.976;9.584;2022-07-23T03:33:59;26.20;47.60
488;DHT22;16586;48.976;9.584;2022-07-23T03:36:28;24.10;44.60
488;DHT22;16586;48.976;9.584;2022-07-23T03:38:55;24.30;41.20
488;DHT22;16586;48.976;9.584;2022-07-23T03:41:23;23.00;40.10
488;DHT22;16586;48.976;9.584;2022-07-23T03:43:50;24.30;46.60
488;DHT22;16586;48.976;9.584;2022-07-23T03:46:17;24.00;43.60
488;DHT22;16586;48.976;9.584;2022-07-23T03:48:44;24.00;43.30
488;DHT22;16586;48.976;9.584;2022-07-23T03:51:11;23.00;40.30
488;DHT22;16586;48.976;9.584;2022-07-23T03:53:37;23.80;41.80
488;DHT22;16586;48.976;9.584;2022-07-23T03:56:05;24.00;47.70
488;DHT22;16586;48.976;9.584;2022-07-23T03:58:33;24.20;47.70
488;DHT22;16586;48.976;9.584;2022-07-23T04:01:00;23.60;41.80
488;DHT22;16586;48.976;9.584;2022-07-23T04:03:27;24.00;42.30
488;DHT22;16586;48.976;9.584;2022-07-23T04:05:54;24.00;42.60
488;DHT22;16586;48.976;9.584;2022-07-23T04:08:21;23.40;42.10
488;DHT22;16586;48.976;9.584;2022-07-23T04:10:48;23.90;48.50
488;DHT22;16586;48.976;9.584;2022-07-23T04:13:15;23.80;48.10
488;DHT22;16586;48.976;9.584;2022-07-23T04:15:43;23.00;46.00
488;DHT22;16586;48.976;9.584;2022-07-23T04:18:10;24.80;43.90
488;DHT22;16586;48.976;9.584;2022-07-23T04:20:37;24.20;48.70
488;DHT22;16586;48.976;9.584;2022-07-23T04:23:04;23.90;48.50
488;DHT22;16586;48.976;9.584;2022-07-23T04:25:31;24.20;46.60
488;DHT22;16586;48.976;9.584;2022-07-23T04:27:57;24.00;47.80
488;DHT22;16586;48.976;9.584;2022-07-23T04:30:24;24.00;45.50
488;DHT22;16586;48.976;9.584;2022-07-23T04:32:53;24.00;45.50
488;DHT22;16586;48.976;9.584;2022-07-23T04:35:20;23.90;47.00
488;DHT22;16586;48.976;9.584;2022-07-23T04:37:47;24.50;49.40
488;DHT22;16586;48.976;9.584;2022-07-23T04:40:14;22.90;47.60
488;DHT22;16586;48.976;9.584;2022-07-23T04:42:40;24.10;45.70
488;DHT22;16586;48.976;9.584;2022-07-23T04:45:08;24.10;44.70
488;DHT22;16586;48.976;9.584;2022-07-23T04:47:35;24.10;47.50
488;DHT22;16586;48.976;9.584;2022-07-23T04:50:04;22.90;46.30
488;DHT22;16586;48.976;9.584;2022-07-23T04:52:31;24.00;50.20
488;DHT22;16586;48.976;9.584;2022-07-23T04:54:58;24.30;50.00
488;DHT22;16586;48.976;9.584;2022-07-23T04:57:25;24.40;51.90
488;DHT22;16586;48.976;9.584;2022-07-23T04:59:52;24.00;48.80
488;DHT22;16586;48.976;9.584;2022-07-23T05:02:19;24.40;51.20
488;DHT22;16586;48.976;9.584;2022-07-23T05:04:46;24.20;47.70
488;DHT22;16586;48.976;9.584;2022-07-23T05:07:14;24.20;46.70
488;DHT22;16586;48.976;9.584;2022-07-23T05:09:41;22.50;46.80
488;DHT22;16586;48.976;9.584;2022-07-23T05:12:08;24.30;49.90
488;DHT22;16586;48.976;9.584;2022-07-23T05:14:35;22.70;48.70
488;DHT22;16586;48.976;9.584;2022-07-23T05:17:02;23.30;49.30
488;DHT22;16586;48.976;9.584;2022-07-23T05:19:29;24.20;47.40
488;DHT22;16586;48.976;9.584;2022-07-23T05:21:56;24.20;47.00
488;DHT22;16586;48.976;9.584;2022-07-23T05:24:24;24.20;47.60
488;DHT22;16586;48.976;9.584;2022-07-23T05:26:51;22.60;49.60
488;DHT22;16586;48.976;9.584;2022-07-23T05:29:18;24.20;51.20
488;DHT22;16586;48.976;9.584;2022-07-23T05:31:45;23.50;45.20
488;DHT22;16586;48.976;9.584;2022-07-23T05:34:12;24.40;45.30
488;DHT22;16586;48.976;9.584;2022-07-23T05:36:39;23.80;45.10
488;DHT22;16586;48.976;9.584;2022-07-23T05:39:06;24.20;45.30
488;DHT22;16586;48.976;9.584;2022-07-23T05:41:34;24.30;52.30
488;DHT22;16586;48.976;9.584;2022-07-23T05:44:01;23.80;48.80
488;DHT22;16586;48.976;9.584;2022-07-23T05:46:28;24.20;44.20
488;DHT22;16586;48.976;9.584;2022-07-23T05:48:55;24.80;49.70
488;DHT22;16586;48.976;9.584;2022-07-23T05:51:23;24.50;44.30
488;DHT22;16586;48.976;9.584;2022-07-23T05:53:51;24.80;50.30
488;DHT22;16586;48.976;9.584;2022-07-23T05:56:18;24.80;43.30
488;DHT22;16586;48.976;9.584;2022-07-23T05:58:47;25.00;48.00
488;DHT22;16586;48.976;9.584;2022-07-23T06:01:13;25.70;47.50
488;DHT22;16586;48.976;9.584;2022-07-23T06:03:40;25.40;48.50
488;DHT22;16586;48.976;9.584;2022-07-23T06:06:07;25.40;46.60
488;DHT22;16586;48.976;9.584;2022-07-23T06:08:35;25.60;47.30
488;DHT22;16586;48.976;9.584;2022-07-23T06:11:02;25.40;42.50
488;DHT22;16586;48.976;9.584;2022-07-23T06:13:29;25.40;46.70
488;DHT22;16586;48.976;9.584;2022-07-23T06:15:57;24.70;44.60
488;DHT22;16586;48.976;9.584;2022-07-23T06:18:24;25.50;46.10
488;DHT22;16586;48.976;9.584;2022-07-23T06:20:51;25.50;47.50
488;DHT22;16586;48.976;9.584;2022-07-23T06:23:18;25.50;49.50
488;DHT22;16586;48.976;9.584;2022-07-23T06:25:44;25.60;41.90
488;DHT22;16586;48.976;9.584;2022-07-23T06:28:11;25.40;40.60
488;DHT22;16586;48.976;9.584;2022-07-23T06:30:38;23.70;37.30
488;DHT22;16586;48.976;9.584;2022-07-23T06:33:06;25.40;45.50
488;DHT22;16586;48.976;9.584;2022-07-23T06:35:33;25.30;40.10
488;DHT22;16586;48.976;9.584;2022-07-23T06:38:00;25.40;42.00
488;DHT22;16586;48.976;9.584;2022-07-23T06:40:27;23.90;38.60
488;DHT22;16586;48.976;9.584;2022-07-23T06:42:54;25.20;44.70
488;DHT22;16586;48.976;9.584;2022-07-23T06:45:21;25.50;46.40
488;DHT22;16586;48.976;9.584;2022-07-23T06:47:48;25.60;46.10
488;DHT22;16586;48.976;9.584;2022-07-23T06:50:16;26.20;46.80
488;DHT22;16586;48.976;9.584;2022-07-23T06:52:43;25.80;46.70
488;DHT22;16586;48.976;9.584;2022-07-23T06:55:10;25.50;43.80
488;DHT22;16586;48.976;9.584;2022-07-23T06:57:37;24.20;42.70
488;DHT22;16586;48.976;9.584;2022-07-23T07:00:05;25.40;45.70
488;DHT22;16586;48.976;9.584;2022-07-23T07:02:32;25.40;43.40
488;DHT22;16586;48.976;9.584;2022-07-23T07:04:59;25.40;42.30
488;DHT22;16586;48.976;9.584;2022-07-23T07:07:27;25.70;49.10
488;DHT22;16586;48.976;9.584;2022-07-23T07:09:54;25.50;40.00
488;DHT22;16586;48.976;9.584;2022-07-23T07:12:21;25.60;42.90
488;DHT22;16586;48.976;9.584;2022-07-23T07:14:48;27.30;42.70
488;DHT22;16586;48.976;9.584;2022-07-23T07:17:15;25.80;43.20
488;DHT22;16586;48.976;9.584;2022-07-23T07:19:42;25.90;46.10
488;DHT22;16586;48.976;9.584;2022-07-23T07:22:09;25.70;41.50
488;DHT22;16586;48.976;9.584;2022-07-23T07:24:37;25.80;41.20
488;DHT22;16586;48.976;9.584;2022-07-23T07:27:04;25.70;43.70
488;DHT22;16586;48.976;9.584;2022-07-23T07:29:31;25.60;42.60
488;DHT22;16586;48.976;9.584;2022-07-23T07:31:58;25.40;42.10
488;DHT22;16586;48.976;9.584;2022-07-23T07:34:25;25.30;42.70
488;DHT22;16586;48.976;9.584;2022-07-23T07:36:52;25.00;41.60
488;DHT22;16586;48.976;9.584;2022-07-23T07:39:19;24.90;41.90
488;DHT22;16586;48.976;9.584;2022-07-23T07:41:47;24.80;45.80
488;DHT22;16586;48.976;9.584;2022-07-23T07:44:14;25.20;46.60
488;DHT22;16586;48.976;9.584;2022-07-23T07:46:42;24.90;46.00
488;DHT22;16586;48.976;9.584;2022-07-23T07:49:09;24.80;46.90
488;DHT22;16586;48.976;9.584;2022-07-23T07:51:35;26.30;46.40
488;DHT22;16586;48.976;9.584;2022-07-23T07:54:03;24.70;48.70
488;DHT22;16586;48.976;9.584;2022-07-23T07:56:30;24.70;46.50
488;DHT22;16586;48.976;9.584;2022-07-23T07:58:58;24.80;49.00
488;DHT22;16586;48.976;9.584;2022-07-23T08:01:26;24.80;45.30
488;DHT22;16586;48.976;9.584;2022-07-23T08:03:53;24.90;51.00
488;DHT22;16586;48.976;9.584;2022-07-23T08:06:20;24.40;50.30
488;DHT22;16586;48.976;9.584;2022-07-23T08:08:47;24.80;44.60
488;DHT22;16586;48.976;9.584;2022-07-23T08:11:14;25.30;45.00
488;DHT22;16586;48.976;9.584;2022-07-23T08:13:40;25.30;45.10
488;DHT22;16586;48.976;9.584;2022-07-23T08:16:11;25.30;43.40
488;DHT22;16586;48.976;9.584;2022-07-23T08:18:38;25.40;44.10
488;DHT22;16586;48.976;9.584;2022-07-23T08:21:04;25.60;42.20
488;DHT22;16586;48.976;9.584;2022-07-23T08:23:32;25.80;44.00
488;DHT22;16586;48.976;9.584;2022-07-23T08:25:58;25.50;43.80
488;DHT22;16586;48.976;9.584;2022-07-23T08:28:26;25.80;48.60
488;DHT22;16586;48.976;9.584;2022-07-23T08:30:53;25.80;44.00
488;DHT22;16586;48.976;9.584;2022-07-23T08:33:22;26.00;47.70
488;DHT22;16586;48.976;9.584;2022-07-23T08:35:50;25.90;42.30
488;DHT22;16586;48.976;9.584;2022-07-23T08:38:20;25.90;46.10
488;DHT22;16586;48.976;9.584;2022-07-23T08:40:48;25.90;44.10
488;DHT22;16586;48.976;9.584;2022-07-23T08:43:17;25.90;44.00
488;DHT22;16586;48.976;9.584;2022-07-23T08:45:46;26.00;43.40
488;DHT22;16586;48.976;9.584;2022-07-23T08:48:15;26.00;42.50
488;DHT22;16586;48.976;9.584;2022-07-23T08:50:44;26.00;44.50
488;DHT22;16586;48.976;9.584;2022-07-23T08:53:12;26.20;45.30
488;DHT22;16586;48.976;9.584;2022-07-23T08:55:39;25.70;46.30
488;DHT22;16586;48.976;9.584;2022-07-23T08:58:06;25.70;49.10
488;DHT22;16586;48.976;9.584;2022-07-23T09:00:33;25.90;48.30
488;DHT22;16586;48.976;9.584;2022-07-23T09:03:00;26.00;46.50
488;DHT22;16586;48.976;9.584;2022-07-23T09:05:27;25.60;47.40
488;DHT22;16586;48.976;9.584;2022-07-23T09:08:10;26.00;45.90
488;DHT22;16586;48.976;9.584;2022-07-23T09:10:45;26.10;46.60
488;DHT22;16586;48.976;9.584;2022-07-23T09:13:28;25.80;44.20
488;DHT22;16586;48.976;9.584;2022-07-23T09:15:58;25.80;49.20
488;DHT22;16586;48.976;9.584;2022-07-23T09:18:30;26.00;42.90
488;DHT22;16586;48.976;9.584;2022-07-23T09:21:09;26.40;44.50
488;DHT22;16586;48.976;9.584;2022-07-23T09:23:42;26.50;46.70
488;DHT22;16586;48.976;9.584;2022-07-23T09:26:34;25.80;47.50
488;DHT22;16586;48.976;9.584;2022-07-23T09:29:07;26.70;45.10
488;DHT22;16586;48.976;9.584;2022-07-23T09:31:43;26.50;48.30
488;DHT22;16586;48.976;9.584;2022-07-23T09:34:13;26.50;47.60
488;DHT22;16586;48.976;9.584;2022-07-23T09:36:40;26.50;41.40
488;DHT22;16586;48.976;9.584;2022-07-23T09:39:10;26.70;42.50
488;DHT22;16586;48.976;9.584;2022-07-23T09:41:40;26.80;41.00
488;DHT22;16586;48.976;9.584;2022-07-23T09:44:12;26.90;44.40
488;DHT22;16586;48.976;9.584;2022-07-23T09:46:40;27.10;39.20
488;DHT22;16586;48.976;9.584;2022-07-23T09:49:14;27.00;42.00
488;DHT22;16586;48.976;9.584;2022-07-23T09:51:50;26.90;38.00
488;DHT22;16586;48.976;9.584;2022-07-23T09:54:28;27.00;38.10
488;DHT22;16586;48.976;9.584;2022-07-23T09:56:57;27.10;38.20
488;DHT22;16586;48.976;9.584;2022-07-23T09:59:26;27.10;38.60
488;DHT22;16586;48.976;9.584;2022-07-23T10:01:54;27.50;38.90
488;DHT22;16586;48.976;9.584;2022-07-23T10:04:23;27.10;39.50
488;DHT22;16586;48.976;9.584;2022-07-23T10:06:52;27.00;39.40
488;DHT22;16586;48.976;9.584;2022-07-23T10:09:25;27.50;39.20
488;DHT22;16586;48.976;9.584;2022-07-23T10:11:55;27.30;39.20
488;DHT22;16586;48.976;9.584;2022-07-23T10:14:25;27.00;38.10
488;DHT22;16586;48.976;9.584;2022-07-23T10:16:55;27.00;38.10
488;DHT22;16586;48.976;9.584;2022-07-23T10:19:23;27.10;37.80
488;DHT22;16586;48.976;9.584;2022-07-23T10:21:53;27.20;37.70
488;DHT22;16586;48.976;9.584;2022-07-23T10:24:30;27.60;39.90
488;DHT22;16586;48.976;9.584;2022-07-23T10:27:19;27.40;37.60
488;DHT22;16586;48.976;9.584;2022-07-23T10:29:52;27.90;39.20
488;DHT22;16586;48.976;9.584;2022-07-23T10:32:29;27.90;35.20
488;DHT22;16586;48.976;9.584;2022-07-23T10:35:07;28.00;42.70
488;DHT22;16586;48.976;9.584;2022-07-23T10:37:38;28.50;40.70
488;DHT22;16586;48.976;9.584;2022-07-23T10:40:12;28.60;38.70
488;DHT22;16586;48.976;9.584;2022-07-23T10:42:39;28.90;41.10
488;DHT22;16586;48.976;9.584;2022-07-23T10:45:23;28.70;34.00
488;DHT22;16586;48.976;9.584;2022-07-23T10:47:50;29.10;34.30
488;DHT22;16586;48.976;9.584;2022-07-23T10:50:19;29.20;40.70
488;DHT22;16586;48.976;9.584;2022-07-23T10:53:08;29.30;33.90
488;DHT22;16586;48.976;9.584;2022-07-23T10:55:44;29.70;30.80
488;DHT22;16586;48.976;9.584;2022-07-23T10:58:13;29.50;30.40
488;DHT22;16586;48.976;9.584;2022-07-23T11:00:43;29.50;33.90
488;DHT22;16586;48.976;9.584;2022-07-23T11:03:30;29.60;31.30
488;DHT22;16586;48.976;9.584;2022-07-23T11:05:58;30.10;28.40
488;DHT22;16586;48.976;9.584;2022-07-23T11:08:25;30.40;32.20
488;DHT22;16586;48.976;9.584;2022-07-23T11:10:56;30.00;32.20
488;DHT22;16586;48.976;9.584;2022-07-23T11:13:45;30.60;39.40
488;DHT22;16586;48.976;9.584;2022-07-23T11:16:26;30.90;39.80
488;DHT22;16586;48.976;9.584;2022-07-23T11:21:49;30.80;33.70
488;DHT22;16586;48.976;9.584;2022-07-23T11:24:21;31.00;33.10
488;DHT22;16586;48.976;9.584;2022-07-23T11:29:44;31.20;31.60
488;DHT22;16586;48.976;9.584;2022-07-23T11:32:34;32.20;33.00
488;DHT22;16586;48.976;9.584;2022-07-23T11:35:22;32.40;33.60
488;DHT22;16586;48.976;9.584;2022-07-23T11:37:49;32.20;27.20
488;DHT22;16586;48.976;9.584;2022-07-23T11:40:19;32.00;26.10
488;DHT22;16586;48.976;9.584;2022-07-23T11:42:56;30.70;30.00
488;DHT22;16586;48.976;9.584;2022-07-23T11:45:25;32.70;26.90
488;DHT22;16586;48.976;9.584;2022-07-23T11:47:53;33.30;29.90
488;DHT22;16586;48.976;9.584;2022-07-23T11:50:25;32.70;31.30
488;DHT22;16586;48.976;9.584;2022-07-23T11:52:52;32.80;27.90
488;DHT22;16586;48.976;9.584;2022-07-23T11:55:20;32.90;27.40
488;DHT22;16586;48.976;9.584;2022-07-23T11:57:47;33.00;27.20
488;DHT22;16586;48.976;9.584;2022-07-23T12:00:17;33.20;24.30
488;DHT22;16586;48.976;9.584;2022-07-23T12:02:47;33.00;23.20
488;DHT22;16586;48.976;9.584;2022-07-23T12:05:15;33.30;25.60
488;DHT22;16586;48.976;9.584;2022-07-23T12:07:43;33.20;28.20
488;DHT22;16586;48.976;9.584;2022-07-23T12:10:16;33.30;26.70
488;DHT22;16586;48.976;9.584;2022-07-23T12:12:45;33.60;28.70
488;DHT22;16586;48.976;9.584;2022-07-23T12:15:14;33.90;27.70
488;DHT22;16586;48.976;9.584;2022-07-23T12:17:44;33.90;22.40
488;DHT22;16586;48.976;9.584;2022-07-23T12:20:14;34.30;22.40
488;DHT22;16586;48.976;9.584;2022-07-23T12:22:42;34.60;26.60
488;DHT22;16586;48.976;9.584;2022-07-23T12:25:11;34.40;25.10
488;DHT22;16586;48.976;9.584;2022-07-23T12:27:38;34.10;21.60
488;DHT22;16586;48.976;9.584;2022-07-23T12:30:16;33.80;24.90
488;DHT22;16586;48.976;9.584;2022-07-23T12:32:46;33.60;28.90
488;DHT22;16586;48.976;9.584;2022-07-23T12:35:14;33.40;28.40
488;DHT22;16586;48.976;9.584;2022-07-23T12:37:43;33.00;24.90
488;DHT22;16586;48.976;9.584;2022-07-23T12:40:25;32.80;23.90
488;DHT22;16586;48.976;9.584;2022-07-23T12:42:55;32.60;24.30
488;DHT22;16586;48.976;9.584;2022-07-23T12:45:22;32.20;32.70
488;DHT22;16586;48.976;9.584;2022-07-23T12:48:00;31.60;30.00
488;DHT22;16586;48.976;9.584;2022-07-23T12:50:37;32.20;29.10
488;DHT22;16586;48.976;9.584;2022-07-23T12:53:09;32.20;32.00
488;DHT22;16586;48.976;9.584;2022-07-23T12:55:37;32.20;23.90
488;DHT22;16586;48.976;9.584;2022-07-23T12:58:07;32.50;27.60
488;DHT22;16586;48.976;9.584;2022-07-23T13:00:50;33.10;31.40
488;DHT22;16586;48.976;9.584;2022-07-23T13:03:27;33.40;24.40
488;DHT22;16586;48.976;9.584;2022-07-23T13:05:54;33.80;29.40
488;DHT22;16586;48.976;9.584;2022-07-23T13:08:22;33.60;30.80
488;DHT22;16586;48.976;9.584;2022-07-23T13:10:50;33.40;23.60
488;DHT22;16586;48.976;9.584;2022-07-23T13:13:20;33.40;26.70
488;DHT22;16586;48.976;9.584;2022-07-23T13:15:48;33.10;24.20
488;DHT22;16586;48.976;9.584;2022-07-23T13:18:15;33.00;24.20
488;DHT22;16586;48.976;9.584;2022-07-23T13:20:44;32.80;24.80
488;DHT22;16586;48.976;9.584;2022-07-23T13:23:12;32.60;24.40
488;DHT22;16586;48.976;9.584;2022-07-23T13:25:40;33.60;25.10
488;DHT22;16586;48.976;9.584;2022-07-23T13:28:07;32.50;26.00
488;DHT22;16586;48.976;9.584;2022-07-23T13:30:35;32.30;27.10
488;DHT22;16586;48.976;9.584;2022-07-23T13:33:03;32.40;29.80
488;DHT22;16586;48.976;9.584;2022-07-23T13:35:30;32.40;24.80
488;DHT22;16586;48.976;9.584;2022-07-23T13:37:59;31.70;27.30
488;DHT22;16586;48.976;9.584;2022-07-23T13:40:26;32.30;25.70
488;DHT22;16586;48.976;9.584;2022-07-23T13:42:53;32.30;27.10
488;DHT22;16586;48.976;9.584;2022-07-23T13:45:20;32.20;24.60
488;DHT22;16586;48.976;9.584;2022-07-23T13:47:47;31.90;25.50
488;DHT22;16586;48.976;9.584;2022-07-23T13:50:14;31.90;29.20
488;DHT22;16586;48.976;9.584;2022-07-23T13:52:42;31.90;25.00
488;DHT22;16586;48.976;9.584;2022-07-23T13:55:11;32.00;24.80
488;DHT22;16586;48.976;9.584;2022-07-23T13:57:39;32.20;26.70
488;DHT22;16586;48.976;9.584;2022-07-23T14:00:08;32.30;35.40
488;DHT22;16586;48.976;9.584;2022-07-23T14:02:37;32.50;32.70
488;DHT22;16586;48.976;9.584;2022-07-23T14:05:05;32.40;32.90
488;DHT22;16586;48.976;9.584;2022-07-23T14:07:33;33.10;30.10
488;DHT22;16586;48.976;9.584;2022-07-23T14:10:01;33.00;33.40
488;DHT22;16586;48.976;9.584;2022-07-23T14:12:29;33.20;24.70
488;DHT22;16586;48.976;9.584;2022-07-23T14:14:56;33.60;23.90
488;DHT22;16586;48.976;9.584;2022-07-23T14:17:23;33.80;36.70
488;DHT22;16586;48.976;9.584;2022-07-23T14:19:50;34.20;21.40
488;DHT22;16586;48.976;9.584;2022-07-23T14:22:17;34.90;21.80
488;DHT22;16586;48.976;9.584;2022-07-23T14:24:44;35.20;21.00
488;DHT22;16586;48.976;9.584;2022-07-23T14:27:11;35.80;24.90
488;DHT22;16586;48.976;9.584;2022-07-23T14:29:39;36.00;20.10
488;DHT22;16586;48.976;9.584;2022-07-23T14:32:06;36.70;33.00
488;DHT22;16586;48.976;9.584;2022-07-23T14:34:34;37.10;19.90
488;DHT22;16586;48.976;9.584;2022-07-23T14:37:01;36.60;20.60
488;DHT22;16586;48.976;9.584;2022-07-23T14:39:28;36.40;27.50
488;DHT22;16586;48.976;9.584;2022-07-23T14:41:58;36.10;24.30
488;DHT22;16586;48.976;9.584;2022-07-23T14:44:25;35.80;20.40
488;DHT22;16586;48.976;9.584;2022-07-23T14:46:53;35.40;23.50
488;DHT22;16586;48.976;9.584;2022-07-23T14:49:20;34.90;30.40
488;DHT22;16586;48.976;9.584;2022-07-23T14:51:47;35.00;19.70
488;DHT22;16586;48.976;9.584;2022-07-23T14:54:14;35.20;21.20
488;DHT22;16586;48.976;9.584;2022-07-23T14:56:42;34.70;24.50
488;DHT22;16586;48.976;9.584;2022-07-23T14:59:09;33.80;21.60
488;DHT22;16586;48.976;9.584;2022-07-23T15:01:36;34.40;24.60
488;DHT22;16586;48.976;9.584;2022-07-23T15:04:04;34.50;19.90
488;DHT22;16586;48.976;9.584;2022-07-23T15:06:31;34.60;21.80
488;DHT22;16586;48.976;9.584;2022-07-23T15:08:58;34.80;18.60
488;DHT22;16586;48.976;9.584;2022-07-23T15:11:26;34.90;23.80
488;DHT22;16586;48.976;9.584;2022-07-23T15:13:54;35.10;38.50
488;DHT22;16586;48.976;9.584;2022-07-23T15:16:21;34.10;19.30
488;DHT22;16586;48.976;9.584;2022-07-23T15:18:48;33.50;24.60
488;DHT22;16586;48.976;9.584;2022-07-23T15:21:17;33.00;39.10
488;DHT22;16586;48.976;9.584;2022-07-23T15:23:44;33.20;24.10
488;DHT22;16586;48.976;9.584;2022-07-23T15:26:11;30.80;25.20
488;DHT22;16586;48.976;9.584;2022-07-23T15:28:40;32.30;40.60
488;DHT22;16586;48.976;9.584;2022-07-23T15:31:08;32.20;23.40
488;DHT22;16586;48.976;9.584;2022-07-23T15:33:35;31.00;21.20
488;DHT22;16586;48.976;9.584;2022-07-23T15:36:03;32.80;21.90
488;DHT22;16586;48.976;9.584;2022-07-23T15:38:31;33.00;22.80
488;DHT22;16586;48.976;9.584;2022-07-23T15:40:58;34.30;26.50
488;DHT22;16586;48.976;9.584;2022-07-23T15:43:26;32.60;22.80
488;DHT22;16586;48.976;9.584;2022-07-23T15:45:53;33.20;26.80
488;DHT22;16586;48.976;9.584;2022-07-23T15:48:20;33.10;40.10
488;DHT22;16586;48.976;9.584;2022-07-23T15:50:48;34.10;27.70
488;DHT22;16586;48.976;9.584;2022-07-23T15:53:15;33.40;22.20
488;DHT22;16586;48.976;9.584;2022-07-23T15:55:45;33.20;27.90
488;DHT22;16586;48.976;9.584;2022-07-23T15:58:12;32.90;41.00
488;DHT22;16586;48.976;9.584;2022-07-23T16:00:40;32.80;33.10
488;DHT22;16586;48.976;9.584;2022-07-23T16:03:06;33.40;25.20
488;DHT22;16586;48.976;9.584;2022-07-23T16:05:34;33.10;29.60
488;DHT22;16586;48.976;9.584;2022-07-23T16:08:02;33.20;27.70
488;DHT22;16586;48.976;9.584;2022-07-23T16:10:30;33.30;31.60
488;DHT22;16586;48.976;9.584;2022-07-23T16:12:58;33.40;27.20
488;DHT22;16586;48.976;9.584;2022-07-23T16:15:25;33.10;32.40
488;DHT22;16586;48.976;9.584;2022-07-23T16:17:53;33.40;25.20